Time;durP1;ratioP1;P1;durP2;ratioP2;P2;SDS_P1;SDS_P2;PMS_P1;PMS_P2;Temp;Humidity;BMP_temperature;BMP_pressure;BME280_temperature;BME280_humidity;BME280_pressure;Samples;Min_cycle;Max_cycle;Signal;HPM_P1;HPM_P2
2023/01/31 00:00:16;;;;;;;;;7.25;7.00;;;;;20.89;41.02;102776.44;5056094;28;45467;-70
2023/01/31 00:02:41;;;;;;;;;9.25;8.50;;;;;20.89;41.26;102772.97;5055467;28;45971;-70
2023/01/31 00:05:07;;;;;;;;;11.00;8.00;;;;;20.89;40.79;102770.31;5056018;28;45449;-69
2023/01/31 00:07:32;;;;;;;;;8.25;8.25;;;;;20.78;40.96;102747.38;5055749;28;45435;-70
2023/01/31 00:09:57;;;;;;;;;8.75;8.00;;;;;20.85;41.04;102767.91;5056150;28;45401;-70
2023/01/31 00:12:22;;;;;;;;;9.00;7.25;;;;;20.87;40.98;102765.13;5055954;28;47288;-69
2023/01/31 00:14:48;;;;;;;;;8.75;7.75;;;;;20.88;41.04;102771.25;5055675;28;45413;-70
2023/01/31 00:17:13;;;;;;;;;8.00;8.00;;;;;20.86;41.03;102766.09;5055496;28;45393;-69
2023/01/31 00:19:38;;;;;;;;;8.75;7.75;;;;;20.87;41.19;102759.00;5054810;28;45287;-69
2023/01/31 00:22:04;;;;;;;;;11.75;8.75;;;;;20.84;41.13;102765.41;5055462;28;46991;-70
2023/01/31 00:24:29;;;;;;;;;17.50;9.25;;;;;20.84;40.93;102749.53;5055822;28;45293;-69
2023/01/31 00:26:57;;;;;;;;;10.00;8.50;;;;;20.86;41.39;102747.59;5055659;28;45370;-70
2023/01/31 00:29:23;;;;;;;;;8.25;8.25;;;;;20.85;40.89;102756.47;5055821;28;46043;-70
2023/01/31 00:31:49;;;;;;;;;11.25;8.00;;;;;20.84;40.97;102763.56;5055112;28;47135;-70
2023/01/31 00:34:14;;;;;;;;;9.50;9.00;;;;;20.84;41.24;102757.47;5055604;28;45459;-69
2023/01/31 00:36:40;;;;;;;;;11.00;9.00;;;;;20.84;40.81;102765.41;5055743;28;45406;-70
2023/01/31 00:39:06;;;;;;;;;8.00;8.00;;;;;20.73;41.04;102737.16;5058886;28;45400;-69
2023/01/31 00:41:33;;;;;;;;;8.25;8.00;;;;;20.79;41.36;102752.53;5059022;28;45477;-69
2023/01/31 00:43:58;;;;;;;;;7.00;7.00;;;;;20.83;40.84;102753.13;5059053;28;45353;-70
2023/01/31 00:46:24;;;;;;;;;9.00;9.00;;;;;20.81;40.82;102739.19;5058491;28;45410;-70
2023/01/31 00:48:50;;;;;;;;;11.25;9.75;;;;;20.79;41.15;102743.78;5058739;28;45500;-70
2023/01/31 00:51:16;;;;;;;;;9.25;8.00;;;;;20.84;41.20;102746.88;5058961;28;45305;-69
2023/01/31 00:53:41;;;;;;;;;10.25;9.00;;;;;20.69;40.59;102714.56;5058931;28;45413;-70
2023/01/31 00:56:12;;;;;;;;;8.75;8.50;;;;;20.82;40.75;102738.19;5058795;28;45332;-69
2023/01/31 00:58:38;;;;;;;;;10.50;9.25;;;;;20.81;40.97;102729.44;5058976;28;45443;-69
2023/01/31 01:01:15;;;;;;;;;7.25;7.25;;;;;20.77;41.00;102714.78;5058556;28;46027;-69
2023/01/31 01:03:42;;;;;;;;;9.25;8.50;;;;;20.76;40.82;102717.56;5058773;28;45482;-70
2023/01/31 01:06:09;;;;;;;;;9.00;7.00;;;;;20.81;40.81;102724.16;5058773;28;45330;-70
2023/01/31 01:08:35;;;;;;;;;8.50;8.50;;;;;20.81;40.64;102729.44;5058361;28;45285;-70
2023/01/31 01:11:06;;;;;;;;;10.00;8.25;;;;;20.82;41.25;102744.34;5058526;28;46459;-70
2023/01/31 01:13:32;;;;;;;;;6.50;6.50;;;;;20.79;40.97;102744.59;5040346;28;45373;-69
2023/01/31 01:16:12;;;;;;;;;7.00;6.00;;;;;20.82;40.79;102743.50;5058367;28;45584;-70
2023/01/31 01:18:38;;;;;;;;;10.50;10.25;;;;;20.81;41.35;102744.47;5058655;28;45383;-70
2023/01/31 01:21:09;;;;;;;;;9.25;9.25;;;;;20.78;41.00;102745.56;5058182;28;47210;-70
2023/01/31 01:23:35;;;;;;;;;10.25;9.00;;;;;20.81;40.63;102753.25;5058240;28;45420;-69
2023/01/31 01:26:01;;;;;;;;;12.00;8.75;;;;;20.75;40.84;102737.88;5058425;28;45445;-70
2023/01/31 01:28:26;;;;;;;;;9.00;9.00;;;;;20.81;41.11;102747.97;5058524;28;45356;-69
2023/01/31 01:30:51;;;;;;;;;9.00;8.00;;;;;20.79;41.17;102739.28;5057843;28;46328;-70
2023/01/31 01:33:17;;;;;;;;;8.75;8.75;;;;;20.81;41.02;102733.91;5058164;28;45304;-69
2023/01/31 01:35:42;;;;;;;;;9.50;7.00;;;;;20.74;41.08;102731.75;5058563;28;45452;-69
2023/01/31 01:38:07;;;;;;;;;10.25;8.50;;;;;20.80;41.20;102738.34;5058281;28;45379;-70
2023/01/31 01:40:37;;;;;;;;;8.25;8.25;;;;;20.81;41.15;102745.31;5058152;28;45302;-69
2023/01/31 01:43:03;;;;;;;;;8.00;8.00;;;;;20.80;40.90;102743.63;5058049;28;45371;-70
2023/01/31 01:45:29;;;;;;;;;8.00;6.50;;;;;20.76;40.86;102722.84;5057653;28;45296;-70
2023/01/31 01:47:59;;;;;;;;;9.75;8.00;;;;;20.82;40.92;102735.56;5058013;28;45382;-70
2023/01/31 01:50:36;;;;;;;;;10.75;10.75;;;;;20.81;41.58;102729.44;5056611;28;46164;-70
2023/01/31 01:53:13;;;;;;;;;10.50;9.25;;;;;20.81;40.87;102739.19;5057885;28;45388;-69
2023/01/31 01:55:53;;;;;;;;;10.75;8.75;;;;;20.82;40.95;102746.13;5056717;28;45345;-70
2023/01/31 01:58:35;;;;;;;;;8.25;8.25;;;;;20.81;40.85;102736.53;5057718;28;45486;-69
2023/01/31 02:01:04;;;;;;;;;6.00;6.00;;;;;20.81;40.76;102731.25;5057341;28;46376;-69
2023/01/31 02:03:29;;;;;;;;;10.75;8.00;;;;;20.77;40.80;102729.81;5057571;28;45375;-71
2023/01/31 02:05:58;;;;;;;;;8.75;7.00;;;;;20.80;40.80;102745.44;5057892;28;45384;-70
2023/01/31 02:08:29;;;;;;;;;9.25;8.25;;;;;20.79;41.13;102749.06;5057608;28;45395;-70
2023/01/31 02:10:56;;;;;;;;;9.50;8.00;;;;;20.79;40.65;102743.78;5057722;28;46132;-70
2023/01/31 02:13:22;;;;;;;;;10.00;8.00;;;;;20.74;41.00;102739.69;5057170;28;45464;-70
2023/01/31 02:15:48;;;;;;;;;8.50;7.50;;;;;20.79;41.08;102744.59;5057612;28;45340;-70
2023/01/31 02:18:15;;;;;;;;;9.00;7.50;;;;;20.78;41.07;102742.91;5057890;28;45309;-70
2023/01/31 02:21:11;;;;;;;;;12.50;11.00;;;;;20.79;41.20;102741.94;5057497;28;46225;-70
2023/01/31 02:23:59;;;;;;;;;8.25;7.25;;;;;20.74;40.77;102739.69;5057526;28;45390;-70
2023/01/31 02:26:49;;;;;;;;;9.50;9.50;;;;;20.78;40.81;102752.66;5057554;28;45328;-69
2023/01/31 02:29:32;;;;;;;;;9.25;8.25;;;;;20.77;41.12;102743.88;5057184;28;45406;-70
2023/01/31 02:32:27;;;;;;;;;8.25;7.25;;;;;20.78;40.88;102742.06;5057197;28;46146;-70
2023/01/31 02:35:20;;;;;;;;;10.25;8.00;;;;;20.78;41.20;102744.72;5057230;28;45542;-70
2023/01/31 02:37:51;;;;;;;;;10.75;8.00;;;;;20.77;41.09;102743.88;5057537;28;45381;-70
2023/01/31 02:40:38;;;;;;;;;6.25;6.25;;;;;20.76;40.99;102736.91;5057283;28;45422;-70
2023/01/31 02:43:31;;;;;;;;;7.25;7.25;;;;;20.76;41.05;102736.91;5056764;28;45293;-69
2023/01/31 02:46:09;;;;;;;;;10.00;7.25;;;;;20.76;40.92;102733.44;5056995;28;45429;-70
2023/01/31 02:48:37;;;;;;;;;8.00;7.00;;;;;20.76;40.88;102739.56;5056835;28;45328;-70
2023/01/31 02:51:11;;;;;;;;;10.00;6.00;;;;;20.74;41.04;102737.03;5057278;28;45400;-70
2023/01/31 02:53:56;;;;;;;;;9.00;8.50;;;;;20.75;41.09;102740.53;5056825;28;46660;-69
2023/01/31 02:56:30;;;;;;;;;9.00;9.00;;;;;20.75;40.89;102737.88;5056661;28;45290;-70
2023/01/31 02:59:01;;;;;;;;;11.50;10.00;;;;;20.61;41.00;102716.03;5056999;28;45449;-70
2023/01/31 03:01:49;;;;;;;;;9.50;8.00;;;;;20.73;40.89;102740.66;5056522;28;45306;-70
2023/01/31 03:04:15;;;;;;;;;9.75;8.00;;;;;20.73;40.80;102727.44;5056726;28;46211;-70
2023/01/31 03:06:58;;;;;;;;;9.75;9.50;;;;;20.72;41.12;102720.44;5056689;28;45289;-70
2023/01/31 03:09:35;;;;;;;;;8.50;8.00;;;;;20.73;40.88;102723.94;5056752;28;45454;-70
2023/01/31 03:12:28;;;;;;;;;9.00;7.75;;;;;20.72;40.97;102733.69;5056522;28;45573;-70
2023/01/31 03:15:12;;;;;;;;;11.50;8.75;;;;;20.72;40.88;102725.75;5056419;28;46965;-70
2023/01/31 03:17:48;;;;;;;;;8.00;7.75;;;;;20.73;40.47;102721.28;5056553;28;45296;-70
2023/01/31 03:20:20;;;;;;;;;8.75;8.00;;;;;20.72;41.13;102725.75;5056543;28;45462;-70
2023/01/31 03:22:55;;;;;;;;;11.00;9.75;;;;;20.68;40.75;102708.44;5056525;28;45434;-70
2023/01/31 03:25:26;;;;;;;;;13.25;10.75;;;;;20.72;41.18;102720.44;5056029;28;46127;-70
2023/01/31 03:27:56;;;;;;;;;7.50;7.25;;;;;20.73;41.02;102716.00;5056290;28;45374;-70
2023/01/31 03:30:47;;;;;;;;;8.75;7.25;;;;;20.72;41.01;102716.97;5056529;28;45294;-70
2023/01/31 03:33:19;;;;;;;;;9.00;7.75;;;;;20.73;40.76;102713.34;5056452;28;45459;-70
2023/01/31 03:35:51;;;;;;;;;8.50;8.00;;;;;20.72;40.86;102711.66;5056235;28;47401;-70
2023/01/31 03:38:24;;;;;;;;;9.75;9.25;;;;;20.71;41.00;102718.75;5056554;28;45375;-70
2023/01/31 03:41:10;;;;;;;;;10.75;8.75;;;;;20.72;40.78;102716.97;5056098;28;45307;-71
2023/01/31 03:43:49;;;;;;;;;9.25;9.00;;;;;20.73;41.00;102721.28;5056127;28;45730;-70
2023/01/31 03:46:21;;;;;;;;;8.25;8.25;;;;;20.68;40.89;102715.53;5056145;28;46128;-70
2023/01/31 03:48:51;;;;;;;;;10.00;8.00;;;;;20.73;40.85;102716.00;5055736;28;45476;-70
2023/01/31 03:51:21;;;;;;;;;11.50;10.25;;;;;20.66;40.67;102701.59;5056262;28;45387;-70
2023/01/31 03:53:53;;;;;;;;;10.00;8.00;;;;;20.73;40.85;102724.78;5056137;28;45314;-70
2023/01/31 03:56:21;;;;;;;;;14.00;10.50;;;;;20.72;41.25;102724.91;5055531;28;47131;-70
2023/01/31 03:58:52;;;;;;;;;9.75;9.00;;;;;20.74;40.73;102723.81;5056142;28;45489;-70
2023/01/31 04:01:20;;;;;;;;;10.75;9.25;;;;;20.73;40.89;102718.66;5056226;28;45415;-70
2023/01/31 04:03:59;;;;;;;;;11.25;8.75;;;;;20.73;40.92;102723.94;5056068;28;45484;-70
2023/01/31 04:06:26;;;;;;;;;12.00;10.00;;;;;20.71;40.95;102721.41;5055809;28;45410;-70
2023/01/31 04:08:51;;;;;;;;;10.75;7.75;;;;;20.60;40.79;102703.78;5042569;28;45961;-70
2023/01/31 04:11:20;;;;;;;;;9.75;8.25;;;;;20.68;40.75;102710.25;5017843;28;45317;-70
2023/01/31 04:13:45;;;;;;;;;12.50;10.25;;;;;20.71;41.13;102716.13;5035364;28;45476;-70
2023/01/31 04:16:10;;;;;;;;;8.75;7.25;;;;;20.71;40.69;102718.75;5035684;28;45329;-70
2023/01/31 04:18:36;;;;;;;;;8.25;8.25;;;;;20.71;40.63;102713.47;5035664;28;45420;-70
2023/01/31 04:21:01;;;;;;;;;7.00;5.00;;;;;20.71;41.03;102717.94;5035993;28;45406;-70
2023/01/31 04:23:26;;;;;;;;;8.25;7.75;;;;;20.67;40.56;102709.41;5035249;28;45575;-70
2023/01/31 04:25:53;;;;;;;;;9.00;9.00;;;;;20.63;40.80;102710.63;5035534;28;46304;-70
2023/01/31 04:28:20;;;;;;;;;10.00;8.00;;;;;20.70;40.97;102724.19;5035427;28;45342;-70
2023/01/31 04:30:45;;;;;;;;;8.50;8.50;;;;;20.70;40.49;102713.59;5035617;28;45399;-70
2023/01/31 04:33:11;;;;;;;;;15.00;9.00;;;;;20.71;41.04;102715.28;5035596;28;45337;-70
2023/01/31 04:35:39;;;;;;;;;10.25;10.00;;;;;20.58;40.78;102694.31;5035396;28;47229;-70
2023/01/31 04:38:04;;;;;;;;;10.00;8.75;;;;;20.70;40.74;102703.03;5035007;28;45377;-70
2023/01/31 04:40:30;;;;;;;;;8.75;8.75;;;;;20.70;40.68;102713.59;5035525;28;45373;-70
2023/01/31 04:42:55;;;;;;;;;10.00;9.00;;;;;20.71;40.88;102712.66;5035586;28;45436;-70
2023/01/31 04:45:20;;;;;;;;;11.75;8.50;;;;;20.69;40.82;102699.53;5034918;28;46260;-69
2023/01/31 04:47:46;;;;;;;;;10.75;9.00;;;;;20.70;40.65;102709.16;5043039;28;45369;-70
2023/01/31 04:50:11;;;;;;;;;10.75;8.25;;;;;20.67;40.48;102712.03;5055529;28;45412;-70
2023/01/31 04:52:36;;;;;;;;;11.00;10.50;;;;;20.70;40.72;102708.31;5055150;28;45504;-70
2023/01/31 04:55:02;;;;;;;;;11.50;10.00;;;;;20.65;40.65;102694.63;5055250;28;47821;-70
2023/01/31 04:57:27;;;;;;;;;10.50;8.50;;;;;20.70;40.66;102709.16;5055212;28;45364;-70
2023/01/31 04:59:52;;;;;;;;;13.75;10.25;;;;;20.69;40.62;102710.13;5055609;28;45395;-70
2023/01/31 05:02:18;;;;;;;;;8.00;8.00;;;;;20.65;40.82;102702.56;5055566;28;45397;-70
2023/01/31 05:04:43;;;;;;;;;12.50;10.00;;;;;20.68;40.51;102705.81;5055045;28;46058;-70
2023/01/31 05:07:08;;;;;;;;;11.75;8.00;;;;;20.69;40.48;102702.19;5054858;28;45409;-70
2023/01/31 05:09:34;;;;;;;;;10.00;9.25;;;;;20.68;40.91;102704.97;5054940;28;45408;-70
2023/01/31 05:11:59;;;;;;;;;8.50;7.75;;;;;20.69;40.70;102706.63;5055151;28;45432;-70
2023/01/31 05:14:24;;;;;;;;;4.00;4.00;;;;;20.70;40.40;102700.38;5055200;28;46045;-70
2023/01/31 05:16:50;;;;;;;;;14.25;8.50;;;;;20.70;40.68;102695.09;5054973;28;45427;-70
2023/01/31 05:19:15;;;;;;;;;9.00;9.00;;;;;20.69;40.57;102696.03;5055184;28;45389;-70
2023/01/31 05:21:54;;;;;;;;;9.50;7.00;;;;;20.70;40.79;102689.81;5054631;28;45364;-70
2023/01/31 05:24:22;;;;;;;;;11.00;9.75;;;;;20.66;40.58;102691.03;5056971;28;46967;-70
2023/01/31 05:26:50;;;;;;;;;11.50;8.00;;;;;20.71;40.58;102702.06;5058205;28;45358;-70
2023/01/31 05:29:16;;;;;;;;;9.00;7.00;;;;;20.71;40.55;102692.31;5058426;28;45246;-70
2023/01/31 05:31:41;;;;;;;;;8.25;8.25;;;;;20.70;40.42;102693.28;5058521;28;45487;-70
2023/01/31 05:34:07;;;;;;;;;9.00;8.00;;;;;20.70;40.44;102693.28;5058304;28;46171;-70
2023/01/31 05:36:33;;;;;;;;;9.50;8.00;;;;;20.70;40.50;102695.09;5057811;28;45265;-70
2023/01/31 05:38:58;;;;;;;;;14.25;10.00;;;;;20.69;40.76;102691.59;5058318;28;45293;-69
2023/01/31 05:41:23;;;;;;;;;12.25;10.00;;;;;20.71;40.46;102694.13;5058137;28;45429;-70
2023/01/31 05:43:48;;;;;;;;;10.00;8.00;;;;;20.71;40.71;102691.50;5058340;28;46291;-70
2023/01/31 05:46:14;;;;;;;;;9.50;8.00;;;;;20.62;40.30;102680.69;5057868;28;45406;-70
2023/01/31 05:48:39;;;;;;;;;10.00;8.00;;;;;20.70;40.57;102690.66;5057859;28;45357;-70
2023/01/31 05:51:04;;;;;;;;;9.75;8.00;;;;;20.70;40.73;102695.09;5057763;28;45333;-70
2023/01/31 05:53:30;;;;;;;;;9.25;9.00;;;;;20.71;40.67;102697.59;5057809;28;46190;-70
2023/01/31 05:55:55;;;;;;;;;12.50;10.00;;;;;20.70;40.40;102692.44;5057980;28;45332;-70
2023/01/31 05:58:20;;;;;;;;;12.25;9.00;;;;;20.70;40.75;102700.38;5058198;28;45459;-70
2023/01/31 06:00:46;;;;;;;;;9.25;8.00;;;;;20.63;40.67;102687.66;5057951;28;45394;-70
2023/01/31 06:03:11;;;;;;;;;9.00;8.25;;;;;20.65;40.69;102690.19;5057673;28;47078;-70
2023/01/31 06:05:39;;;;;;;;;8.75;8.75;;;;;20.69;40.35;102690.75;5057484;28;45348;-70
2023/01/31 06:08:04;;;;;;;;;9.00;8.00;;;;;20.69;40.60;102685.47;5057827;28;45360;-70
2023/01/31 06:10:29;;;;;;;;;9.00;9.00;;;;;20.69;40.49;102688.94;5057841;28;45303;-70
2023/01/31 06:12:55;;;;;;;;;8.50;8.50;;;;;20.69;40.76;102688.09;5057616;28;45909;-70
2023/01/31 06:15:20;;;;;;;;;8.25;7.75;;;;;20.69;40.81;102690.75;5057692;28;45305;-70
2023/01/31 06:17:46;;;;;;;;;8.00;6.75;;;;;20.67;40.75;102684.75;5057830;28;45842;-70
2023/01/31 06:20:11;;;;;;;;;7.25;7.25;;;;;20.68;40.24;102691.75;5057420;28;45350;-70
2023/01/31 06:22:36;;;;;;;;;12.50;9.75;;;;;20.68;40.73;102695.22;5057348;28;45388;-70
2023/01/31 06:25:02;;;;;;;;;9.50;7.75;;;;;20.68;40.84;102692.59;5057456;28;45329;-70
2023/01/31 06:27:30;;;;;;;;;8.50;8.50;;;;;20.68;40.37;102694.38;5057658;28;45485;-70
2023/01/31 06:29:56;;;;;;;;;9.50;8.75;;;;;20.67;40.38;102688.25;5057547;28;45527;-70
2023/01/31 06:32:21;;;;;;;;;8.00;8.00;;;;;20.67;40.66;102687.41;5057504;28;46100;-70
2023/01/31 06:34:46;;;;;;;;;8.50;7.00;;;;;20.67;40.73;102690.88;5056459;28;45412;-70
2023/01/31 06:37:12;;;;;;;;;7.00;6.75;;;;;20.68;40.79;102691.75;5057282;28;45393;-70
2023/01/31 06:39:37;;;;;;;;;12.75;10.25;;;;;20.66;40.42;102680.44;5057342;28;45357;-70
2023/01/31 06:42:03;;;;;;;;;9.25;8.25;;;;;20.65;40.58;102678.75;5057256;28;47077;-70
2023/01/31 06:44:28;;;;;;;;;11.00;8.75;;;;;20.67;40.74;102675.03;5057131;28;45372;-71
2023/01/31 06:46:54;;;;;;;;;11.00;7.50;;;;;20.66;40.68;102677.81;5057069;28;45423;-70
2023/01/31 06:49:19;;;;;;;;;9.00;9.00;;;;;20.67;40.61;102671.53;5055505;28;45459;-70
2023/01/31 06:51:44;;;;;;;;;9.25;8.50;;;;;20.66;40.29;102668.03;5057121;28;47262;-70
2023/01/31 06:54:09;;;;;;;;;7.50;7.50;;;;;20.67;40.84;102672.38;5057253;28;45483;-69
2023/01/31 06:56:35;;;;;;;;;9.00;8.50;;;;;20.67;40.44;102672.38;5057079;28;45357;-69
2023/01/31 06:59:00;;;;;;;;;8.75;7.50;;;;;20.67;40.81;102676.81;5057033;28;45280;-74
2023/01/31 07:01:26;;;;;;;;;11.25;7.50;;;;;20.66;40.81;102678.63;5056043;28;46093;-71
2023/01/31 07:03:51;;;;;;;;;8.00;8.00;;;;;20.66;40.84;102675.16;5056387;28;45358;-72
2023/01/31 07:06:19;;;;;;;;;10.50;8.50;;;;;20.66;40.62;102683.09;5056480;28;45503;-71
2023/01/31 07:08:45;;;;;;;;;11.75;9.25;;;;;20.66;40.55;102677.81;5046131;28;45400;-72
2023/01/31 07:11:10;;;;;;;;;10.50;8.25;;;;;20.66;40.85;102677.81;5036458;28;45368;-70
2023/01/31 07:13:35;;;;;;;;;9.00;9.00;;;;;20.65;41.23;102678.75;5036793;28;45465;-71
2023/01/31 07:16:01;;;;;;;;;7.00;7.00;;;;;20.53;41.18;102656.81;5036769;28;45752;-71
2023/01/31 07:18:26;;;;;;;;;9.75;8.00;;;;;20.66;41.25;102678.63;5036526;28;45342;-71
2023/01/31 07:20:51;;;;;;;;;8.25;8.00;;;;;20.67;41.52;102685.59;5036339;28;46893;-70
2023/01/31 07:23:17;;;;;;;;;7.50;7.50;;;;;20.68;41.53;102699.66;5036503;28;45342;-69
2023/01/31 07:25:42;;;;;;;;;10.75;8.00;;;;;20.69;41.17;102680.16;5036657;28;45333;-71
2023/01/31 07:28:09;;;;;;;;;12.75;10.00;;;;;20.68;41.69;102679.34;5036321;28;45459;-70
2023/01/31 07:30:35;;;;;;;;;10.75;8.75;;;;;20.69;41.66;102682.81;5030299;28;46273;-70
2023/01/31 07:33:01;;;;;;;;;11.00;9.75;;;;;20.69;41.67;102683.66;5047297;28;45936;-70
2023/01/31 07:35:27;;;;;;;;;8.25;8.25;;;;;20.69;41.41;102677.53;5051526;28;45436;-70
2023/01/31 07:37:52;;;;;;;;;8.25;8.25;;;;;20.70;41.65;102681.88;5051332;28;45404;-70
2023/01/31 07:40:18;;;;;;;;;7.25;7.25;;;;;20.71;41.42;102680.91;5051792;28;46639;-71
2023/01/31 07:42:43;;;;;;;;;12.25;9.00;;;;;20.71;41.54;102678.25;5052426;28;45724;-70
2023/01/31 07:45:14;;;;;;;;;8.00;8.00;;;;;20.67;41.47;102666.25;5052214;28;45493;-71
2023/01/31 07:47:41;;;;;;;;;9.75;7.00;;;;;20.69;41.41;102680.16;5050016;28;45690;-70
2023/01/31 07:50:07;;;;;;;;;9.75;8.00;;;;;20.71;41.18;102691.50;5051658;28;46986;-71
2023/01/31 07:52:32;;;;;;;;;7.50;6.50;;;;;20.68;41.54;102686.44;5051686;28;45302;-71
2023/01/31 07:54:58;;;;;;;;;8.00;6.75;;;;;20.69;41.18;102691.59;5051436;28;45296;-71
2023/01/31 07:57:23;;;;;;;;;9.00;9.00;;;;;20.69;41.36;102688.94;5051549;28;45376;-71
2023/01/31 07:59:48;;;;;;;;;9.25;8.00;;;;;20.70;41.19;102679.22;5050382;28;46227;-71
2023/01/31 08:05:01;;;;;;;;;10.50;8.50;;;;;20.69;41.27;102701.34;5052159;28;45409;-70
2023/01/31 08:07:28;;;;;;;;;8.50;8.00;;;;;20.68;41.53;102705.81;5050879;28;45511;-71
2023/01/31 08:09:53;;;;;;;;;9.75;8.00;;;;;20.69;41.44;102711.91;5050593;28;46315;-70
2023/01/31 08:12:19;;;;;;;;;9.00;7.25;;;;;20.60;41.39;102702.94;5051025;28;45305;-71
2023/01/31 08:14:44;;;;;;;;;8.25;6.50;;;;;20.61;41.33;102699.31;5052241;28;45613;-71
2023/01/31 08:17:10;;;;;;;;;9.50;7.00;;;;;20.59;41.30;102701.25;5051321;28;45220;-71
2023/01/31 08:19:35;;;;;;;;;7.25;6.25;;;;;20.57;41.08;102697.91;5051210;28;46285;-70
2023/01/31 08:22:01;;;;;;;;;7.75;6.75;;;;;20.69;41.37;102717.19;5050059;28;45761;-71
2023/01/31 08:24:27;;;;;;;;;7.00;7.00;;;;;20.68;41.21;102720.84;5050998;28;45348;-70
2023/01/31 08:26:52;;;;;;;;;9.25;7.50;;;;;20.63;41.32;102710.63;5051166;28;45515;-70
2023/01/31 08:29:17;;;;;;;;;8.00;7.75;;;;;20.68;41.47;102721.69;5050776;28;46954;-71
2023/01/31 08:31:43;;;;;;;;;10.25;8.25;;;;;20.67;40.97;102721.78;5050845;28;45371;-70
2023/01/31 08:34:08;;;;;;;;;10.50;7.75;;;;;20.69;41.38;102725.13;5051328;28;45376;-71
2023/01/31 08:36:34;;;;;;;;;10.75;8.00;;;;;20.62;41.36;102708.94;5052071;28;45880;-70
2023/01/31 08:39:00;;;;;;;;;8.00;7.00;;;;;20.69;41.18;102712.75;5050790;28;47054;-71
2023/01/31 08:41:27;;;;;;;;;9.00;7.75;;;;;20.69;40.92;102717.19;5050824;28;45593;-70
2023/01/31 08:43:54;;;;;;;;;9.25;8.00;;;;;20.69;41.23;102711.91;5049663;28;45408;-71
2023/01/31 08:46:20;;;;;;;;;8.25;8.00;;;;;20.68;41.39;102710.25;5014865;28;45506;-71
2023/01/31 08:48:46;;;;;;;;;9.25;7.25;;;;;20.51;41.27;102683.38;5050929;28;46122;-70
2023/01/31 08:51:12;;;;;;;;;9.25;8.75;;;;;20.68;41.50;102721.69;5055204;28;45372;-70
2023/01/31 08:53:45;;;;;;;;;7.75;6.75;;;;;20.69;41.18;102722.50;5055459;28;45427;-70
2023/01/31 08:56:12;;;;;;;;;10.25;7.25;;;;;20.69;41.17;102723.34;5055242;28;45500;-70
2023/01/31 08:58:40;;;;;;;;;8.50;8.00;;;;;20.68;41.27;102726.13;5055755;28;45410;-70
2023/01/31 09:01:12;;;;;;;;;10.50;6.50;;;;;20.70;41.13;102737.41;5058796;28;45477;-70
2023/01/31 09:03:38;;;;;;;;;6.50;6.50;;;;;20.69;41.07;102730.44;5057546;28;45395;-70
2023/01/31 09:06:06;;;;;;;;;10.00;8.00;;;;;20.70;41.33;102742.69;5058744;28;45409;-70
2023/01/31 09:08:32;;;;;;;;;8.50;6.75;;;;;20.68;41.32;102726.13;5058176;28;47391;-70
2023/01/31 09:10:59;;;;;;;;;10.75;9.50;;;;;20.70;41.11;102713.59;5058655;28;45323;-70
2023/01/31 09:13:25;;;;;;;;;3.00;3.00;;;;;20.70;41.12;102718.91;5058459;28;45278;-70
2023/01/31 09:16:05;;;;;;;;;10.25;9.00;;;;;20.70;41.13;102716.25;5058788;28;45286;-70
2023/01/31 09:18:36;;;;;;;;;11.00;8.00;;;;;20.70;41.17;102701.22;5058430;28;46917;-70
2023/01/31 09:21:19;;;;;;;;;9.50;7.00;;;;;20.69;41.27;102712.75;5058607;28;45417;-70
2023/01/31 09:23:46;;;;;;;;;13.75;9.75;;;;;20.68;41.27;102708.44;5058639;28;45262;-69
2023/01/31 09:26:12;;;;;;;;;10.25;10.00;;;;;20.69;41.36;102709.25;5058380;28;45610;-70
2023/01/31 09:28:41;;;;;;;;;8.50;8.25;;;;;20.69;41.43;102711.91;5057690;28;46949;-70
2023/01/31 09:31:09;;;;;;;;;8.00;7.25;;;;;20.69;41.30;102714.56;5058185;28;45465;-68
2023/01/31 09:33:35;;;;;;;;;12.75;8.00;;;;;20.67;41.37;102714.69;5058273;28;45438;-70
2023/01/31 09:36:03;;;;;;;;;8.00;7.75;;;;;20.69;41.10;102719.84;5058349;28;45380;-68
2023/01/31 09:38:29;;;;;;;;;8.00;8.00;;;;;20.68;41.40;102716.38;5058238;28;45443;-70
2023/01/31 09:40:57;;;;;;;;;6.75;6.75;;;;;20.69;41.46;102720.69;5057913;28;45436;-70
2023/01/31 09:43:28;;;;;;;;;10.00;10.00;;;;;20.69;41.25;102715.41;5057875;28;45432;-70
2023/01/31 09:45:59;;;;;;;;;12.75;8.50;;;;;20.68;41.37;102724.31;5057958;28;45394;-70
2023/01/31 09:48:29;;;;;;;;;10.25;9.25;;;;;20.65;41.34;102729.00;5057672;28;47252;-70
2023/01/31 09:50:57;;;;;;;;;11.25;8.75;;;;;20.68;41.60;102728.75;5057908;28;45452;-69
2023/01/31 09:53:29;;;;;;;;;12.75;9.25;;;;;20.69;41.45;102733.06;5058048;28;45242;-70
2023/01/31 09:56:28;;;;;;;;;11.25;9.00;;;;;20.69;41.34;102727.78;5058045;28;45366;-69
2023/01/31 09:59:21;;;;;;;;;10.00;8.50;;;;;20.56;41.11;102718.22;5056135;28;45995;-70
2023/01/31 10:02:14;;;;;;;;;8.50;7.25;;;;;20.69;41.22;102741.84;5057818;28;45428;-70
2023/01/31 10:05:28;;;;;;;;;8.00;8.00;;;;;20.68;41.62;102737.53;5057796;28;45370;-70
2023/01/31 10:08:05;;;;;;;;;9.50;9.00;;;;;20.69;41.45;102741.84;4995423;28;45548;-70
2023/01/31 10:10:50;;;;;;;;;8.00;6.00;;;;;20.68;41.35;102747.28;4994367;28;47247;-71
2023/01/31 10:13:30;;;;;;;;;9.25;8.75;;;;;20.69;41.91;102741.00;4995426;28;45479;-70
2023/01/31 10:16:05;;;;;;;;;12.00;9.00;;;;;20.63;41.26;102739.72;4995668;28;45433;-70
2023/01/31 10:18:38;;;;;;;;;12.25;8.50;;;;;20.68;41.22;102747.28;4995692;28;45530;-70
2023/01/31 10:21:16;;;;;;;;;11.00;9.50;;;;;20.67;41.16;102735.84;4995343;28;45619;-70
2023/01/31 10:23:51;;;;;;;;;13.00;9.75;;;;;20.68;41.40;102737.53;4995245;28;45424;-69
2023/01/31 10:26:32;;;;;;;;;10.00;8.75;;;;;20.55;41.44;102708.63;4995241;28;45417;-69
2023/01/31 10:29:03;;;;;;;;;10.75;9.50;;;;;20.63;41.16;102715.91;4995281;28;45385;-68
2023/01/31 10:31:47;;;;;;;;;11.50;9.00;;;;;20.69;41.05;102728.63;4995102;28;45986;-70
2023/01/31 10:34:29;;;;;;;;;10.00;9.00;;;;;20.66;41.16;102723.59;4995053;28;45552;-70
2023/01/31 10:37:18;;;;;;;;;10.50;8.50;;;;;20.70;41.49;102732.97;4994851;28;45471;-69
2023/01/31 10:39:52;;;;;;;;;9.00;9.00;;;;;20.71;41.28;102739.91;4995346;28;45428;-69
2023/01/31 10:42:32;;;;;;;;;7.50;6.75;;;;;20.71;41.11;102731.97;4994660;28;46478;-69
2023/01/31 10:45:06;;;;;;;;;10.00;8.25;;;;;20.73;41.52;102726.59;5050951;28;45354;-70
2023/01/31 10:47:38;;;;;;;;;7.50;7.25;;;;;20.72;41.44;102725.75;5038727;28;45451;-70
2023/01/31 10:50:37;;;;;;;;;10.50;10.00;;;;;20.73;41.33;102716.00;5057137;28;45476;-70
2023/01/31 10:53:23;;;;;;;;;11.00;9.00;;;;;20.75;41.17;102722.00;5056525;28;47302;-69
2023/01/31 10:56:02;;;;;;;;;6.25;6.25;;;;;20.76;41.54;102720.19;5056781;28;45394;-68
2023/01/31 10:58:28;;;;;;;;;9.25;8.25;;;;;20.71;41.40;102715.28;5056943;28;45341;-70
2023/01/31 11:00:54;;;;;;;;;9.50;9.50;;;;;20.76;41.62;102720.19;5056903;28;45289;-70
2023/01/31 11:03:19;;;;;;;;;8.75;8.75;;;;;20.70;41.30;102716.25;5056855;28;47169;-69
2023/01/31 11:05:49;;;;;;;;;10.00;9.50;;;;;20.77;41.54;102724.50;5056837;28;45446;-70
2023/01/31 11:08:32;;;;;;;;;9.00;8.25;;;;;20.76;41.50;102721.06;5056700;28;45432;-70
2023/01/31 11:11:08;;;;;;;;;10.00;9.50;;;;;20.76;41.57;102718.41;5056317;28;45435;-70
2023/01/31 11:13:33;;;;;;;;;9.75;9.00;;;;;20.70;41.31;102713.59;5056473;28;47296;-69
2023/01/31 11:16:01;;;;;;;;;10.50;10.00;;;;;20.76;41.26;102717.56;5056715;28;45312;-70
2023/01/31 11:18:30;;;;;;;;;9.00;7.00;;;;;20.76;41.37;102715.75;5056996;28;45430;-70
2023/01/31 11:20:59;;;;;;;;;9.00;7.25;;;;;20.76;41.58;102714.91;5056184;28;45428;-70
2023/01/31 11:23:28;;;;;;;;;4.00;4.00;;;;;20.73;41.65;102706.28;5056335;28;46126;-69
2023/01/31 11:25:55;;;;;;;;;8.00;8.00;;;;;20.74;41.38;102707.94;5056120;28;45329;-70
2023/01/31 11:28:38;;;;;;;;;8.25;8.00;;;;;20.66;41.62;102689.19;5056796;28;45383;-70
2023/01/31 11:31:08;;;;;;;;;10.50;9.00;;;;;20.76;41.50;102699.03;5056142;28;45415;-70
2023/01/31 11:33:46;;;;;;;;;10.50;8.00;;;;;20.76;41.61;102697.25;5048647;28;46968;-68
2023/01/31 11:36:22;;;;;;;;;9.00;8.50;;;;;20.77;41.28;102698.91;5041217;28;46091;-70